sensor_id;sensor_type;location;lat;lon;timestamp;P1;durP1;ratioP1;P2;durP2;ratioP2
14235;SDS011;7202;50.718;7.072;2024-01-07T00:00:15;39.17;;;20.17;;
14235;SDS011;7202;50.718;7.072;2024-01-07T00:02:45;34.10;;;19.20;;
14235;SDS011;7202;50.718;7.072;2024-01-07T00:05:14;38.28;;;19.85;;
14235;SDS011;7202;50.718;7.072;2024-01-07T00:07:43;37.33;;;20.17;;
14235;SDS011;7202;50.718;7.072;2024-01-07T00:10:11;36.05;;;18.70;;
14235;SDS011;7202;50.718;7.072;2024-01-07T00:12:40;34.58;;;19.50;;
14235;SDS011;7202;50.718;7.072;2024-01-07T00:15:09;33.92;;;18.17;;
14235;SDS011;7202;50.718;7.072;2024-01-07T00:17:38;33.65;;;18.70;;
14235;SDS011;7202;50.718;7.072;2024-01-07T00:20:08;35.38;;;18.67;;
14235;SDS011;7202;50.718;7.072;2024-01-07T00:22:38;33.28;;;18.05;;
14235;SDS011;7202;50.718;7.072;2024-01-07T00:25:06;35.72;;;19.52;;
14235;SDS011;7202;50.718;7.072;2024-01-07T00:27:35;36.88;;;20.33;;
14235;SDS011;7202;50.718;7.072;2024-01-07T00:30:05;36.58;;;20.30;;
14235;SDS011;7202;50.718;7.072;2024-01-07T00:32:34;37.53;;;20.02;;
14235;SDS011;7202;50.718;7.072;2024-01-07T00:35:03;40.00;;;19.48;;
14235;SDS011;7202;50.718;7.072;2024-01-07T00:37:33;41.20;;;20.42;;
14235;SDS011;7202;50.718;7.072;2024-01-07T00:40:02;38.63;;;20.40;;
14235;SDS011;7202;50.718;7.072;2024-01-07T00:42:32;40.55;;;19.58;;
14235;SDS011;7202;50.718;7.072;2024-01-07T00:45:00;34.63;;;19.20;;
14235;SDS011;7202;50.718;7.072;2024-01-07T00:47:29;37.05;;;20.08;;
14235;SDS011;7202;50.718;7.072;2024-01-07T00:49:58;38.15;;;19.42;;
14235;SDS011;7202;50.718;7.072;2024-01-07T00:52:26;42.10;;;21.60;;
14235;SDS011;7202;50.718;7.072;2024-01-07T00:54:56;43.67;;;21.02;;
14235;SDS011;7202;50.718;7.072;2024-01-07T00:57:25;39.53;;;20.27;;
14235;SDS011;7202;50.718;7.072;2024-01-07T00:59:54;44.78;;;21.25;;
14235;SDS011;7202;50.718;7.072;2024-01-07T01:02:22;45.17;;;21.08;;
14235;SDS011;7202;50.718;7.072;2024-01-07T01:04:51;41.97;;;21.02;;
14235;SDS011;7202;50.718;7.072;2024-01-07T01:07:19;40.58;;;21.27;;
14235;SDS011;7202;50.718;7.072;2024-01-07T01:09:48;39.45;;;20.95;;
14235;SDS011;7202;50.718;7.072;2024-01-07T01:12:18;40.45;;;19.52;;
14235;SDS011;7202;50.718;7.072;2024-01-07T01:14:47;43.00;;;21.67;;
14235;SDS011;7202;50.718;7.072;2024-01-07T01:17:15;37.40;;;19.35;;
14235;SDS011;7202;50.718;7.072;2024-01-07T01:19:44;42.78;;;20.77;;
14235;SDS011;7202;50.718;7.072;2024-01-07T01:22:13;35.47;;;19.80;;
14235;SDS011;7202;50.718;7.072;2024-01-07T01:24:41;37.25;;;18.67;;
14235;SDS011;7202;50.718;7.072;2024-01-07T01:27:12;37.83;;;20.17;;
14235;SDS011;7202;50.718;7.072;2024-01-07T01:29:43;39.33;;;20.63;;
14235;SDS011;7202;50.718;7.072;2024-01-07T01:32:12;36.80;;;19.33;;
14235;SDS011;7202;50.718;7.072;2024-01-07T01:34:40;39.05;;;20.15;;
14235;SDS011;7202;50.718;7.072;2024-01-07T01:37:09;36.17;;;19.27;;
14235;SDS011;7202;50.718;7.072;2024-01-07T01:39:40;37.35;;;19.92;;
14235;SDS011;7202;50.718;7.072;2024-01-07T01:42:09;35.00;;;19.13;;
14235;SDS011;7202;50.718;7.072;2024-01-07T01:44:37;37.95;;;18.30;;
14235;SDS011;7202;50.718;7.072;2024-01-07T01:47:07;35.95;;;19.52;;
14235;SDS011;7202;50.718;7.072;2024-01-07T01:49:36;36.20;;;19.42;;
14235;SDS011;7202;50.718;7.072;2024-01-07T01:52:05;34.25;;;18.35;;
14235;SDS011;7202;50.718;7.072;2024-01-07T01:54:34;37.10;;;18.05;;
14235;SDS011;7202;50.718;7.072;2024-01-07T01:57:02;37.72;;;19.08;;
14235;SDS011;7202;50.718;7.072;2024-01-07T01:59:31;35.72;;;17.63;;
14235;SDS011;7202;50.718;7.072;2024-01-07T02:02:01;35.45;;;18.65;;
14235;SDS011;7202;50.718;7.072;2024-01-07T02:04:32;37.97;;;19.25;;
14235;SDS011;7202;50.718;7.072;2024-01-07T02:07:02;33.30;;;17.73;;
14235;SDS011;7202;50.718;7.072;2024-01-07T02:09:31;33.70;;;17.92;;
14235;SDS011;7202;50.718;7.072;2024-01-07T02:12:00;32.95;;;18.27;;
14235;SDS011;7202;50.718;7.072;2024-01-07T02:14:29;36.15;;;18.63;;
14235;SDS011;7202;50.718;7.072;2024-01-07T02:16:58;33.15;;;16.88;;
14235;SDS011;7202;50.718;7.072;2024-01-07T02:19:27;28.60;;;16.35;;
14235;SDS011;7202;50.718;7.072;2024-01-07T02:21:57;33.50;;;16.35;;
14235;SDS011;7202;50.718;7.072;2024-01-07T02:24:27;29.88;;;16.63;;
14235;SDS011;7202;50.718;7.072;2024-01-07T02:26:57;28.55;;;15.50;;
14235;SDS011;7202;50.718;7.072;2024-01-07T02:29:28;29.35;;;15.32;;
14235;SDS011;7202;50.718;7.072;2024-01-07T02:31:57;27.60;;;15.65;;
14235;SDS011;7202;50.718;7.072;2024-01-07T02:34:25;27.77;;;15.45;;
14235;SDS011;7202;50.718;7.072;2024-01-07T02:36:54;24.90;;;14.73;;
14235;SDS011;7202;50.718;7.072;2024-01-07T02:39:23;27.25;;;15.50;;
14235;SDS011;7202;50.718;7.072;2024-01-07T02:41:53;25.90;;;14.77;;
14235;SDS011;7202;50.718;7.072;2024-01-07T02:44:21;28.80;;;14.82;;
14235;SDS011;7202;50.718;7.072;2024-01-07T02:46:50;26.65;;;15.85;;
14235;SDS011;7202;50.718;7.072;2024-01-07T02:49:18;28.08;;;15.35;;
14235;SDS011;7202;50.718;7.072;2024-01-07T02:51:47;25.75;;;14.48;;
14235;SDS011;7202;50.718;7.072;2024-01-07T02:54:16;26.17;;;14.15;;
14235;SDS011;7202;50.718;7.072;2024-01-07T02:56:45;26.80;;;15.48;;
14235;SDS011;7202;50.718;7.072;2024-01-07T02:59:15;23.38;;;13.50;;
14235;SDS011;7202;50.718;7.072;2024-01-07T03:01:44;23.90;;;13.77;;
14235;SDS011;7202;50.718;7.072;2024-01-07T03:04:13;26.05;;;13.50;;
14235;SDS011;7202;50.718;7.072;2024-01-07T03:06:43;23.15;;;13.70;;
14235;SDS011;7202;50.718;7.072;2024-01-07T03:09:12;23.48;;;13.88;;
14235;SDS011;7202;50.718;7.072;2024-01-07T03:11:40;24.55;;;13.68;;
14235;SDS011;7202;50.718;7.072;2024-01-07T03:14:09;22.45;;;12.68;;
14235;SDS011;7202;50.718;7.072;2024-01-07T03:16:39;26.02;;;14.05;;
14235;SDS011;7202;50.718;7.072;2024-01-07T03:19:08;21.90;;;12.45;;
14235;SDS011;7202;50.718;7.072;2024-01-07T03:21:36;21.80;;;13.65;;
14235;SDS011;7202;50.718;7.072;2024-01-07T03:24:05;23.02;;;13.60;;
14235;SDS011;7202;50.718;7.072;2024-01-07T03:26:34;22.13;;;12.35;;
14235;SDS011;7202;50.718;7.072;2024-01-07T03:29:03;20.77;;;12.15;;
14235;SDS011;7202;50.718;7.072;2024-01-07T03:31:32;19.02;;;11.45;;
14235;SDS011;7202;50.718;7.072;2024-01-07T03:34:02;19.38;;;12.13;;
14235;SDS011;7202;50.718;7.072;2024-01-07T03:36:30;18.90;;;11.68;;
14235;SDS011;7202;50.718;7.072;2024-01-07T03:38:59;18.77;;;10.68;;
14235;SDS011;7202;50.718;7.072;2024-01-07T03:41:28;20.35;;;12.15;;
14235;SDS011;7202;50.718;7.072;2024-01-07T03:43:56;16.80;;;10.57;;
14235;SDS011;7202;50.718;7.072;2024-01-07T03:46:25;19.00;;;11.95;;
14235;SDS011;7202;50.718;7.072;2024-01-07T03:48:53;20.15;;;10.73;;
14235;SDS011;7202;50.718;7.072;2024-01-07T03:51:23;17.23;;;11.10;;
14235;SDS011;7202;50.718;7.072;2024-01-07T03:53:52;18.77;;;10.90;;
14235;SDS011;7202;50.718;7.072;2024-01-07T03:56:21;20.75;;;10.95;;
14235;SDS011;7202;50.718;7.072;2024-01-07T03:58:49;18.85;;;9.90;;
14235;SDS011;7202;50.718;7.072;2024-01-07T04:01:18;17.77;;;10.27;;
14235;SDS011;7202;50.718;7.072;2024-01-07T04:03:47;20.08;;;11.77;;
14235;SDS011;7202;50.718;7.072;2024-01-07T04:06:15;19.17;;;11.15;;
14235;SDS011;7202;50.718;7.072;2024-01-07T04:08:45;18.08;;;11.52;;
14235;SDS011;7202;50.718;7.072;2024-01-07T04:11:14;20.52;;;11.75;;
14235;SDS011;7202;50.718;7.072;2024-01-07T04:13:42;20.63;;;12.77;;
14235;SDS011;7202;50.718;7.072;2024-01-07T04:16:15;23.40;;;13.02;;
14235;SDS011;7202;50.718;7.072;2024-01-07T04:18:45;21.88;;;12.93;;
14235;SDS011;7202;50.718;7.072;2024-01-07T04:21:19;21.73;;;12.85;;
14235;SDS011;7202;50.718;7.072;2024-01-07T04:23:49;20.08;;;12.10;;
14235;SDS011;7202;50.718;7.072;2024-01-07T04:26:18;20.58;;;12.70;;
14235;SDS011;7202;50.718;7.072;2024-01-07T04:28:47;20.63;;;11.82;;
14235;SDS011;7202;50.718;7.072;2024-01-07T04:31:15;20.38;;;12.35;;
14235;SDS011;7202;50.718;7.072;2024-01-07T04:33:44;17.77;;;11.07;;
14235;SDS011;7202;50.718;7.072;2024-01-07T04:36:13;20.95;;;11.88;;
14235;SDS011;7202;50.718;7.072;2024-01-07T04:38:41;20.98;;;12.68;;
14235;SDS011;7202;50.718;7.072;2024-01-07T04:41:11;21.15;;;12.30;;
14235;SDS011;7202;50.718;7.072;2024-01-07T04:43:42;17.60;;;11.15;;
14235;SDS011;7202;50.718;7.072;2024-01-07T04:46:11;19.88;;;11.50;;
14235;SDS011;7202;50.718;7.072;2024-01-07T04:48:39;18.67;;;11.32;;
14235;SDS011;7202;50.718;7.072;2024-01-07T04:51:08;18.23;;;12.05;;
14235;SDS011;7202;50.718;7.072;2024-01-07T04:53:36;18.95;;;11.95;;
14235;SDS011;7202;50.718;7.072;2024-01-07T04:56:05;16.70;;;11.00;;
14235;SDS011;7202;50.718;7.072;2024-01-07T04:58:35;15.48;;;10.55;;
14235;SDS011;7202;50.718;7.072;2024-01-07T05:01:04;18.27;;;11.32;;
14235;SDS011;7202;50.718;7.072;2024-01-07T05:03:32;18.00;;;10.60;;
14235;SDS011;7202;50.718;7.072;2024-01-07T05:06:02;19.20;;;12.20;;
14235;SDS011;7202;50.718;7.072;2024-01-07T05:08:31;19.70;;;11.20;;
14235;SDS011;7202;50.718;7.072;2024-01-07T05:11:00;20.35;;;12.38;;
14235;SDS011;7202;50.718;7.072;2024-01-07T05:13:28;18.15;;;11.70;;
14235;SDS011;7202;50.718;7.072;2024-01-07T05:15:59;19.17;;;11.98;;
14235;SDS011;7202;50.718;7.072;2024-01-07T05:18:27;18.38;;;11.95;;
14235;SDS011;7202;50.718;7.072;2024-01-07T05:20:56;22.52;;;12.30;;
14235;SDS011;7202;50.718;7.072;2024-01-07T05:23:25;19.25;;;11.50;;
14235;SDS011;7202;50.718;7.072;2024-01-07T05:25:53;18.85;;;11.63;;
14235;SDS011;7202;50.718;7.072;2024-01-07T05:28:22;20.02;;;11.32;;
14235;SDS011;7202;50.718;7.072;2024-01-07T05:30:51;20.45;;;10.82;;
14235;SDS011;7202;50.718;7.072;2024-01-07T05:33:21;17.52;;;10.13;;
14235;SDS011;7202;50.718;7.072;2024-01-07T05:35:50;17.83;;;11.02;;
14235;SDS011;7202;50.718;7.072;2024-01-07T05:38:18;18.88;;;10.27;;
14235;SDS011;7202;50.718;7.072;2024-01-07T05:40:47;16.50;;;10.57;;
14235;SDS011;7202;50.718;7.072;2024-01-07T05:43:15;15.48;;;9.95;;
14235;SDS011;7202;50.718;7.072;2024-01-07T05:45:44;15.25;;;10.25;;
14235;SDS011;7202;50.718;7.072;2024-01-07T05:48:12;19.17;;;11.50;;
14235;SDS011;7202;50.718;7.072;2024-01-07T05:50:42;17.33;;;10.57;;
14235;SDS011;7202;50.718;7.072;2024-01-07T05:53:11;18.33;;;10.55;;
14235;SDS011;7202;50.718;7.072;2024-01-07T05:55:39;17.35;;;11.32;;
14235;SDS011;7202;50.718;7.072;2024-01-07T05:58:08;16.02;;;10.20;;
14235;SDS011;7202;50.718;7.072;2024-01-07T06:00:37;17.92;;;10.57;;
14235;SDS011;7202;50.718;7.072;2024-01-07T06:03:06;16.02;;;10.38;;
14235;SDS011;7202;50.718;7.072;2024-01-07T06:05:34;19.30;;;11.27;;
14235;SDS011;7202;50.718;7.072;2024-01-07T06:08:07;17.65;;;11.73;;
14235;SDS011;7202;50.718;7.072;2024-01-07T06:10:35;17.88;;;10.75;;
14235;SDS011;7202;50.718;7.072;2024-01-07T06:13:04;21.58;;;11.85;;
14235;SDS011;7202;50.718;7.072;2024-01-07T06:15:33;22.70;;;12.40;;
14235;SDS011;7202;50.718;7.072;2024-01-07T06:18:02;22.13;;;12.43;;
14235;SDS011;7202;50.718;7.072;2024-01-07T06:20:31;22.45;;;11.77;;
14235;SDS011;7202;50.718;7.072;2024-01-07T06:22:59;22.75;;;11.98;;
14235;SDS011;7202;50.718;7.072;2024-01-07T06:25:29;23.27;;;12.88;;
14235;SDS011;7202;50.718;7.072;2024-01-07T06:27:57;25.17;;;13.05;;
14235;SDS011;7202;50.718;7.072;2024-01-07T06:30:26;24.30;;;13.38;;
14235;SDS011;7202;50.718;7.072;2024-01-07T06:32:55;25.52;;;14.40;;
14235;SDS011;7202;50.718;7.072;2024-01-07T06:35:23;23.65;;;13.00;;
14235;SDS011;7202;50.718;7.072;2024-01-07T06:37:52;24.45;;;13.77;;
14235;SDS011;7202;50.718;7.072;2024-01-07T06:40:20;25.75;;;13.77;;
14235;SDS011;7202;50.718;7.072;2024-01-07T06:42:51;23.13;;;13.52;;
14235;SDS011;7202;50.718;7.072;2024-01-07T06:45:19;23.35;;;13.80;;
14235;SDS011;7202;50.718;7.072;2024-01-07T06:47:48;26.77;;;15.05;;
14235;SDS011;7202;50.718;7.072;2024-01-07T06:50:17;23.48;;;14.15;;
14235;SDS011;7202;50.718;7.072;2024-01-07T06:52:46;23.42;;;13.98;;
14235;SDS011;7202;50.718;7.072;2024-01-07T06:55:15;23.30;;;14.07;;
14235;SDS011;7202;50.718;7.072;2024-01-07T06:57:43;23.92;;;14.00;;
14235;SDS011;7202;50.718;7.072;2024-01-07T07:00:14;24.75;;;15.57;;
14235;SDS011;7202;50.718;7.072;2024-01-07T07:02:44;22.00;;;13.70;;
14235;SDS011;7202;50.718;7.072;2024-01-07T07:05:13;24.23;;;13.80;;
14235;SDS011;7202;50.718;7.072;2024-01-07T07:07:41;23.88;;;13.82;;
14235;SDS011;7202;50.718;7.072;2024-01-07T07:10:10;20.33;;;13.40;;
14235;SDS011;7202;50.718;7.072;2024-01-07T07:12:38;22.35;;;13.38;;
14235;SDS011;7202;50.718;7.072;2024-01-07T07:15:07;22.85;;;13.43;;
14235;SDS011;7202;50.718;7.072;2024-01-07T07:17:38;24.88;;;14.05;;
14235;SDS011;7202;50.718;7.072;2024-01-07T07:20:07;24.23;;;15.57;;
14235;SDS011;7202;50.718;7.072;2024-01-07T07:22:36;22.98;;;13.80;;
14235;SDS011;7202;50.718;7.072;2024-01-07T07:25:06;23.17;;;15.35;;
14235;SDS011;7202;50.718;7.072;2024-01-07T07:27:35;24.83;;;15.18;;
14235;SDS011;7202;50.718;7.072;2024-01-07T07:30:05;25.17;;;14.05;;
14235;SDS011;7202;50.718;7.072;2024-01-07T07:32:34;24.42;;;14.63;;
14235;SDS011;7202;50.718;7.072;2024-01-07T07:35:05;23.50;;;14.02;;
14235;SDS011;7202;50.718;7.072;2024-01-07T07:37:34;29.45;;;15.32;;
14235;SDS011;7202;50.718;7.072;2024-01-07T07:40:03;23.02;;;14.15;;
14235;SDS011;7202;50.718;7.072;2024-01-07T07:42:32;25.33;;;14.00;;
14235;SDS011;7202;50.718;7.072;2024-01-07T07:45:02;24.23;;;13.82;;
14235;SDS011;7202;50.718;7.072;2024-01-07T07:47:30;23.75;;;14.07;;
14235;SDS011;7202;50.718;7.072;2024-01-07T07:49:59;22.13;;;13.63;;
14235;SDS011;7202;50.718;7.072;2024-01-07T07:52:30;23.35;;;13.85;;
14235;SDS011;7202;50.718;7.072;2024-01-07T07:54:58;22.15;;;14.00;;
14235;SDS011;7202;50.718;7.072;2024-01-07T07:57:27;21.98;;;14.10;;
14235;SDS011;7202;50.718;7.072;2024-01-07T07:59:56;20.70;;;13.27;;
14235;SDS011;7202;50.718;7.072;2024-01-07T08:02:27;22.60;;;13.32;;
14235;SDS011;7202;50.718;7.072;2024-01-07T08:04:56;22.35;;;12.43;;
14235;SDS011;7202;50.718;7.072;2024-01-07T08:07:24;21.85;;;14.15;;
14235;SDS011;7202;50.718;7.072;2024-01-07T08:09:54;20.30;;;13.13;;
14235;SDS011;7202;50.718;7.072;2024-01-07T08:12:24;24.42;;;13.98;;
14235;SDS011;7202;50.718;7.072;2024-01-07T08:14:53;21.83;;;14.02;;
14235;SDS011;7202;50.718;7.072;2024-01-07T08:17:22;21.75;;;13.00;;
14235;SDS011;7202;50.718;7.072;2024-01-07T08:19:52;20.70;;;13.50;;
14235;SDS011;7202;50.718;7.072;2024-01-07T08:22:21;22.52;;;14.05;;
14235;SDS011;7202;50.718;7.072;2024-01-07T08:24:50;24.17;;;13.95;;
14235;SDS011;7202;50.718;7.072;2024-01-07T08:27:19;22.95;;;13.13;;
14235;SDS011;7202;50.718;7.072;2024-01-07T08:29:48;19.20;;;12.52;;
14235;SDS011;7202;50.718;7.072;2024-01-07T08:32:16;22.73;;;13.30;;
14235;SDS011;7202;50.718;7.072;2024-01-07T08:34:46;20.63;;;12.93;;
14235;SDS011;7202;50.718;7.072;2024-01-07T08:37:14;23.30;;;13.40;;
14235;SDS011;7202;50.718;7.072;2024-01-07T08:39:43;22.17;;;13.13;;
14235;SDS011;7202;50.718;7.072;2024-01-07T08:42:12;19.15;;;12.30;;
14235;SDS011;7202;50.718;7.072;2024-01-07T08:44:41;22.75;;;13.45;;
14235;SDS011;7202;50.718;7.072;2024-01-07T08:47:10;21.08;;;12.55;;
14235;SDS011;7202;50.718;7.072;2024-01-07T08:49:39;23.27;;;12.52;;
14235;SDS011;7202;50.718;7.072;2024-01-07T08:52:08;20.50;;;13.27;;
14235;SDS011;7202;50.718;7.072;2024-01-07T08:54:37;20.38;;;12.60;;
14235;SDS011;7202;50.718;7.072;2024-01-07T08:57:05;18.58;;;12.30;;
14235;SDS011;7202;50.718;7.072;2024-01-07T08:59:34;20.23;;;12.77;;
14235;SDS011;7202;50.718;7.072;2024-01-07T09:02:04;18.70;;;11.82;;
14235;SDS011;7202;50.718;7.072;2024-01-07T09:04:33;18.60;;;11.55;;
14235;SDS011;7202;50.718;7.072;2024-01-07T09:07:02;18.95;;;12.13;;
14235;SDS011;7202;50.718;7.072;2024-01-07T09:09:31;20.15;;;12.35;;
14235;SDS011;7202;50.718;7.072;2024-01-07T09:12:00;18.02;;;11.50;;
14235;SDS011;7202;50.718;7.072;2024-01-07T09:14:30;17.52;;;12.07;;
14235;SDS011;7202;50.718;7.072;2024-01-07T09:16:59;17.33;;;10.95;;
14235;SDS011;7202;50.718;7.072;2024-01-07T09:19:28;18.88;;;12.20;;
14235;SDS011;7202;50.718;7.072;2024-01-07T09:21:57;17.52;;;11.15;;
14235;SDS011;7202;50.718;7.072;2024-01-07T09:24:26;17.40;;;11.40;;
14235;SDS011;7202;50.718;7.072;2024-01-07T09:26:55;15.93;;;11.43;;
14235;SDS011;7202;50.718;7.072;2024-01-07T09:29:23;16.45;;;11.07;;
14235;SDS011;7202;50.718;7.072;2024-01-07T09:31:52;19.92;;;12.32;;
14235;SDS011;7202;50.718;7.072;2024-01-07T09:34:21;18.35;;;11.05;;
14235;SDS011;7202;50.718;7.072;2024-01-07T09:36:51;19.52;;;11.25;;
14235;SDS011;7202;50.718;7.072;2024-01-07T09:39:19;21.05;;;11.68;;
14235;SDS011;7202;50.718;7.072;2024-01-07T09:41:48;17.13;;;11.20;;
14235;SDS011;7202;50.718;7.072;2024-01-07T09:44:17;17.85;;;12.05;;
14235;SDS011;7202;50.718;7.072;2024-01-07T09:46:46;21.45;;;12.90;;
14235;SDS011;7202;50.718;7.072;2024-01-07T09:49:18;18.63;;;11.48;;
14235;SDS011;7202;50.718;7.072;2024-01-07T09:51:47;21.33;;;12.38;;
14235;SDS011;7202;50.718;7.072;2024-01-07T09:57:20;23.83;;;12.85;;
14235;SDS011;7202;50.718;7.072;2024-01-07T09:59:48;20.63;;;12.57;;
14235;SDS011;7202;50.718;7.072;2024-01-07T10:02:17;23.08;;;13.23;;
14235;SDS011;7202;50.718;7.072;2024-01-07T10:04:47;21.25;;;12.43;;
14235;SDS011;7202;50.718;7.072;2024-01-07T10:07:18;23.02;;;13.07;;
14235;SDS011;7202;50.718;7.072;2024-01-07T10:09:47;18.38;;;12.75;;
14235;SDS011;7202;50.718;7.072;2024-01-07T10:12:15;19.98;;;12.35;;
14235;SDS011;7202;50.718;7.072;2024-01-07T10:14:44;21.70;;;12.80;;
14235;SDS011;7202;50.718;7.072;2024-01-07T10:17:16;20.60;;;13.10;;
14235;SDS011;7202;50.718;7.072;2024-01-07T10:19:45;24.35;;;13.90;;
14235;SDS011;7202;50.718;7.072;2024-01-07T10:22:14;23.67;;;13.35;;
14235;SDS011;7202;50.718;7.072;2024-01-07T10:24:45;20.83;;;12.75;;
14235;SDS011;7202;50.718;7.072;2024-01-07T10:27:16;21.33;;;13.48;;
14235;SDS011;7202;50.718;7.072;2024-01-07T10:29:46;22.92;;;14.05;;
14235;SDS011;7202;50.718;7.072;2024-01-07T10:32:17;20.63;;;13.57;;
14235;SDS011;7202;50.718;7.072;2024-01-07T10:34:47;22.45;;;14.10;;
14235;SDS011;7202;50.718;7.072;2024-01-07T10:37:18;22.75;;;14.55;;
14235;SDS011;7202;50.718;7.072;2024-01-07T10:39:49;23.55;;;14.65;;
14235;SDS011;7202;50.718;7.072;2024-01-07T10:42:19;22.75;;;13.93;;
14235;SDS011;7202;50.718;7.072;2024-01-07T10:44:48;22.20;;;14.02;;
14235;SDS011;7202;50.718;7.072;2024-01-07T10:47:16;24.27;;;13.68;;
14235;SDS011;7202;50.718;7.072;2024-01-07T10:49:49;24.10;;;14.65;;
14235;SDS011;7202;50.718;7.072;2024-01-07T10:52:18;22.58;;;12.80;;
14235;SDS011;7202;50.718;7.072;2024-01-07T10:54:51;21.80;;;14.05;;
14235;SDS011;7202;50.718;7.072;2024-01-07T10:57:21;22.95;;;12.88;;
14235;SDS011;7202;50.718;7.072;2024-01-07T11:00:00;26.38;;;14.93;;
14235;SDS011;7202;50.718;7.072;2024-01-07T11:02:33;21.70;;;13.23;;
14235;SDS011;7202;50.718;7.072;2024-01-07T11:05:08;24.33;;;13.68;;
14235;SDS011;7202;50.718;7.072;2024-01-07T11:07:55;21.45;;;12.70;;
14235;SDS011;7202;50.718;7.072;2024-01-07T11:10:34;21.05;;;12.90;;
14235;SDS011;7202;50.718;7.072;2024-01-07T11:13:31;18.33;;;11.18;;
14235;SDS011;7202;50.718;7.072;2024-01-07T11:16:01;19.13;;;11.02;;
14235;SDS011;7202;50.718;7.072;2024-01-07T11:18:30;18.50;;;11.45;;
14235;SDS011;7202;50.718;7.072;2024-01-07T11:21:01;17.27;;;11.95;;
14235;SDS011;7202;50.718;7.072;2024-01-07T11:23:30;17.50;;;11.85;;
14235;SDS011;7202;50.718;7.072;2024-01-07T11:26:02;17.45;;;11.55;;
14235;SDS011;7202;50.718;7.072;2024-01-07T11:28:47;17.88;;;10.80;;
14235;SDS011;7202;50.718;7.072;2024-01-07T11:31:18;15.70;;;10.45;;
14235;SDS011;7202;50.718;7.072;2024-01-07T11:33:48;16.90;;;11.23;;
14235;SDS011;7202;50.718;7.072;2024-01-07T11:36:17;15.88;;;11.00;;
14235;SDS011;7202;50.718;7.072;2024-01-07T11:38:47;17.55;;;10.40;;
14235;SDS011;7202;50.718;7.072;2024-01-07T11:41:22;15.25;;;10.30;;
14235;SDS011;7202;50.718;7.072;2024-01-07T11:43:54;14.32;;;9.95;;
14235;SDS011;7202;50.718;7.072;2024-01-07T11:46:32;16.17;;;10.77;;
14235;SDS011;7202;50.718;7.072;2024-01-07T11:49:01;16.75;;;11.23;;
14235;SDS011;7202;50.718;7.072;2024-01-07T11:51:31;11.73;;;7.45;;
14235;SDS011;7202;50.718;7.072;2024-01-07T11:54:01;15.32;;;10.25;;
14235;SDS011;7202;50.718;7.072;2024-01-07T11:56:31;15.20;;;10.85;;
14235;SDS011;7202;50.718;7.072;2024-01-07T11:59:00;17.63;;;11.05;;
14235;SDS011;7202;50.718;7.072;2024-01-07T12:01:29;15.68;;;10.65;;
14235;SDS011;7202;50.718;7.072;2024-01-07T12:03:58;15.00;;;11.10;;
14235;SDS011;7202;50.718;7.072;2024-01-07T12:06:27;18.00;;;12.57;;
14235;SDS011;7202;50.718;7.072;2024-01-07T12:08:56;17.90;;;12.60;;
14235;SDS011;7202;50.718;7.072;2024-01-07T12:11:25;18.55;;;11.95;;
14235;SDS011;7202;50.718;7.072;2024-01-07T12:13:55;18.10;;;12.27;;
14235;SDS011;7202;50.718;7.072;2024-01-07T12:16:25;18.90;;;12.30;;
14235;SDS011;7202;50.718;7.072;2024-01-07T12:18:54;18.92;;;11.95;;
14235;SDS011;7202;50.718;7.072;2024-01-07T12:21:23;19.42;;;12.25;;
14235;SDS011;7202;50.718;7.072;2024-01-07T12:23:54;18.38;;;12.77;;
14235;SDS011;7202;50.718;7.072;2024-01-07T12:26:25;18.10;;;12.48;;
14235;SDS011;7202;50.718;7.072;2024-01-07T12:28:57;18.67;;;12.52;;
14235;SDS011;7202;50.718;7.072;2024-01-07T12:31:27;21.52;;;13.60;;
14235;SDS011;7202;50.718;7.072;2024-01-07T12:33:56;18.33;;;12.40;;
14235;SDS011;7202;50.718;7.072;2024-01-07T12:36:25;17.73;;;12.57;;
14235;SDS011;7202;50.718;7.072;2024-01-07T12:38:54;19.00;;;12.93;;
14235;SDS011;7202;50.718;7.072;2024-01-07T12:41:22;18.40;;;13.93;;
14235;SDS011;7202;50.718;7.072;2024-01-07T12:43:51;19.23;;;12.50;;
14235;SDS011;7202;50.718;7.072;2024-01-07T12:46:21;21.67;;;14.13;;
14235;SDS011;7202;50.718;7.072;2024-01-07T12:48:49;21.27;;;13.25;;
14235;SDS011;7202;50.718;7.072;2024-01-07T12:51:18;19.30;;;12.85;;
14235;SDS011;7202;50.718;7.072;2024-01-07T12:53:50;20.48;;;13.55;;
14235;SDS011;7202;50.718;7.072;2024-01-07T12:56:19;22.55;;;12.98;;
14235;SDS011;7202;50.718;7.072;2024-01-07T12:58:47;19.15;;;11.68;;
14235;SDS011;7202;50.718;7.072;2024-01-07T13:01:16;19.77;;;12.00;;
14235;SDS011;7202;50.718;7.072;2024-01-07T13:03:46;16.55;;;11.77;;
14235;SDS011;7202;50.718;7.072;2024-01-07T13:06:16;19.83;;;12.18;;
14235;SDS011;7202;50.718;7.072;2024-01-07T13:08:44;17.30;;;11.55;;
14235;SDS011;7202;50.718;7.072;2024-01-07T13:11:13;17.50;;;11.45;;
14235;SDS011;7202;50.718;7.072;2024-01-07T13:13:43;17.80;;;12.32;;
14235;SDS011;7202;50.718;7.072;2024-01-07T13:16:12;19.33;;;12.60;;
14235;SDS011;7202;50.718;7.072;2024-01-07T13:18:40;18.83;;;12.32;;
14235;SDS011;7202;50.718;7.072;2024-01-07T13:21:10;18.45;;;11.48;;
14235;SDS011;7202;50.718;7.072;2024-01-07T13:23:39;17.30;;;10.23;;
14235;SDS011;7202;50.718;7.072;2024-01-07T13:26:10;14.95;;;10.35;;
14235;SDS011;7202;50.718;7.072;2024-01-07T13:28:39;14.85;;;10.73;;
14235;SDS011;7202;50.718;7.072;2024-01-07T13:31:08;14.30;;;10.07;;
14235;SDS011;7202;50.718;7.072;2024-01-07T13:33:39;14.40;;;10.05;;
14235;SDS011;7202;50.718;7.072;2024-01-07T13:36:08;15.48;;;10.18;;
14235;SDS011;7202;50.718;7.072;2024-01-07T13:38:41;16.20;;;10.68;;
14235;SDS011;7202;50.718;7.072;2024-01-07T13:41:12;16.77;;;10.95;;
14235;SDS011;7202;50.718;7.072;2024-01-07T13:43:41;18.40;;;10.60;;
14235;SDS011;7202;50.718;7.072;2024-01-07T13:46:10;16.73;;;9.85;;
14235;SDS011;7202;50.718;7.072;2024-01-07T13:48:40;16.70;;;10.13;;
14235;SDS011;7202;50.718;7.072;2024-01-07T13:51:10;12.13;;;8.43;;
14235;SDS011;7202;50.718;7.072;2024-01-07T13:53:41;15.98;;;9.60;;
14235;SDS011;7202;50.718;7.072;2024-01-07T13:56:10;13.68;;;8.60;;
14235;SDS011;7202;50.718;7.072;2024-01-07T13:58:38;15.07;;;8.95;;
14235;SDS011;7202;50.718;7.072;2024-01-07T14:01:08;11.40;;;7.97;;
14235;SDS011;7202;50.718;7.072;2024-01-07T14:03:37;13.57;;;9.45;;
14235;SDS011;7202;50.718;7.072;2024-01-07T14:06:05;13.30;;;8.38;;
14235;SDS011;7202;50.718;7.072;2024-01-07T14:08:34;13.63;;;9.23;;
14235;SDS011;7202;50.718;7.072;2024-01-07T14:11:04;12.45;;;8.02;;
14235;SDS011;7202;50.718;7.072;2024-01-07T14:13:34;15.38;;;7.97;;
14235;SDS011;7202;50.718;7.072;2024-01-07T14:16:03;9.70;;;6.97;;
14235;SDS011;7202;50.718;7.072;2024-01-07T14:18:33;11.02;;;7.10;;
14235;SDS011;7202;50.718;7.072;2024-01-07T14:21:02;10.40;;;6.55;;
14235;SDS011;7202;50.718;7.072;2024-01-07T14:23:31;7.95;;;5.93;;
14235;SDS011;7202;50.718;7.072;2024-01-07T14:26:01;9.32;;;6.78;;
14235;SDS011;7202;50.718;7.072;2024-01-07T14:28:31;11.30;;;7.72;;
14235;SDS011;7202;50.718;7.072;2024-01-07T14:31:00;12.93;;;6.43;;
14235;SDS011;7202;50.718;7.072;2024-01-07T14:33:28;8.95;;;6.00;;
14235;SDS011;7202;50.718;7.072;2024-01-07T14:35:57;7.28;;;5.30;;
14235;SDS011;7202;50.718;7.072;2024-01-07T14:38:26;7.85;;;5.28;;
14235;SDS011;7202;50.718;7.072;2024-01-07T14:40:54;6.57;;;5.25;;
14235;SDS011;7202;50.718;7.072;2024-01-07T14:43:23;8.00;;;4.97;;
14235;SDS011;7202;50.718;7.072;2024-01-07T14:45:54;7.07;;;5.13;;
14235;SDS011;7202;50.718;7.072;2024-01-07T14:48:22;7.32;;;5.13;;
14235;SDS011;7202;50.718;7.072;2024-01-07T14:50:51;9.85;;;6.07;;